Time;durP1;ratioP1;P1;durP2;ratioP2;P2;SDS_P1;SDS_P2;PMS_P1;PMS_P2;Temp;Humidity;BMP_temperature;BMP_pressure;BME280_temperature;BME280_humidity;BME280_pressure;Samples;Min_cycle;Max_cycle;Signal;HPM_P1;HPM_P2
2022/10/22 00:01:02;;;;;;;4.28;0.80;;;;;;;14.14;81.48;98679.53;5040132;28;20174;-48
2022/10/22 00:03:28;;;;;;;7.57;1.13;;;;;;;14.16;80.98;98683.81;5057264;28;20167;-48
2022/10/22 00:05:55;;;;;;;5.07;1.10;;;;;;;14.14;80.70;98679.53;5044220;28;20041;-48
2022/10/22 00:08:22;;;;;;;4.55;0.98;;;;;;;14.13;80.66;98677.81;5041670;28;20722;-48
2022/10/22 00:10:48;;;;;;;6.25;1.65;;;;;;;14.12;80.70;98686.53;5040917;28;20381;-46
2022/10/22 00:13:15;;;;;;;7.13;1.33;;;;;;;14.11;80.90;98683.97;5041809;28;20064;-47
2022/10/22 00:15:42;;;;;;;4.93;1.02;;;;;;;14.09;80.90;98696.22;5041526;28;20068;-49
2022/10/22 00:18:08;;;;;;;8.52;0.70;;;;;;;14.08;80.34;98689.34;5046951;28;20094;-48
2022/10/22 00:20:35;;;;;;;7.95;1.75;;;;;;;14.05;80.61;98695.47;5042667;28;20490;-52
2022/10/22 00:23:01;;;;;;;5.65;1.23;;;;;;;14.02;80.99;98700.84;5042274;28;20069;-47
2022/10/22 00:25:28;;;;;;;6.13;1.13;;;;;;;14.00;80.98;98707.84;5041928;28;20139;-49
2022/10/22 00:27:55;;;;;;;4.63;1.33;;;;;;;13.99;80.89;98716.56;5042235;28;20045;-46
2022/10/22 00:30:21;;;;;;;9.15;1.30;;;;;;;13.98;81.11;98717.44;5034924;28;20579;-48
2022/10/22 00:32:48;;;;;;;5.40;0.80;;;;;;;13.95;80.47;98722.78;5041513;28;20147;-49
2022/10/22 00:35:15;;;;;;;5.93;0.93;;;;;;;13.92;80.68;98725.50;5040675;28;20488;-51
2022/10/22 00:37:41;;;;;;;6.50;1.63;;;;;;;13.90;81.06;98733.38;5038679;28;20468;-48
2022/10/22 00:40:09;;;;;;;7.53;1.10;;;;;;;13.90;81.58;98742.91;5041124;28;20083;-51
2022/10/22 00:42:35;;;;;;;8.10;0.93;;;;;;;13.86;80.18;98743.06;5042948;28;20106;-48
2022/10/22 00:47:53;;;;;;;8.77;1.33;;;;;;;13.81;80.83;98749.34;5088610;27;20123;-48
2022/10/22 00:53:07;;;;;;;16.05;2.08;;;;;;;14.16;79.88;98754.97;5117464;27;20401;-48
2022/10/22 00:55:34;;;;;;;9.77;1.15;;;;;;;13.92;80.81;98756.75;5037290;28;20049;-46
2022/10/22 00:58:01;;;;;;;10.23;1.05;;;;;;;13.85;80.46;98764.75;5038091;28;20124;-49
2022/10/22 01:00:28;;;;;;;12.23;1.40;;;;;;;13.82;81.02;98762.25;5038713;28;20068;-48
2022/10/22 01:02:56;;;;;;;8.05;0.88;;;;;;;13.79;80.72;98772.81;5039863;28;20052;-49
2022/10/22 01:05:27;;;;;;;10.35;1.10;;;;;;;13.77;80.95;98766.81;5036859;28;20510;-46
2022/10/22 01:07:54;;;;;;;5.38;0.80;;;;;;;13.75;81.38;98771.22;5047383;28;20139;-47
2022/10/22 01:10:51;;;;;;;10.50;1.63;;;;;;;13.67;81.34;98773.22;5037357;28;20075;-51
2022/10/22 01:16:13;;;;;;;8.15;1.25;;;;;;;13.67;80.92;98778.44;5063725;27;20492;-48
2022/10/22 01:21:45;;;;;;;9.85;0.80;;;;;;;13.62;80.98;98795.06;5100473;27;20671;-47
2022/10/22 01:27:19;;;;;;;10.90;2.88;;;;;;;13.56;81.11;98802.25;5083267;27;20123;-50
2022/10/22 01:29:50;;;;;;;;;;;;;;;13.44;80.77;98796.53;5045732;28;20536;-49
2022/10/22 01:32:21;;;;;;;12.88;3.38;;;;;;;13.56;80.74;98803.09;5060706;28;19920;-47
2022/10/22 01:34:53;;;;;;;6.55;2.30;;;;;;;13.56;80.86;98812.66;5056582;28;20132;-47
2022/10/22 01:37:25;;;;;;;10.32;2.60;;;;;;;13.55;81.46;98806.63;5049155;28;20408;-49
2022/10/22 01:39:53;;;;;;;7.82;1.85;;;;;;;13.53;80.94;98816.22;5041896;28;20045;-49
2022/10/22 01:42:20;;;;;;;9.18;2.47;;;;;;;13.52;81.02;98813.66;5042607;28;20517;-48
2022/10/22 01:44:48;;;;;;;8.25;2.08;;;;;;;13.52;81.09;98818.88;5042104;28;20102;-51
2022/10/22 01:50:09;;;;;;;8.43;0.90;;;;;;;13.47;81.07;98821.59;5077964;27;20124;-48
2022/10/22 01:53:15;;;;;;;11.27;0.98;;;;;;;13.42;80.56;98833.91;5021470;28;20691;-48
2022/10/22 01:56:08;;;;;;;7.63;0.63;;;;;;;13.40;81.41;98823.56;5023416;28;20092;-48
2022/10/22 01:58:47;;;;;;;9.25;1.00;;;;;;;13.46;81.04;98822.50;5043333;28;20580;-50
2022/10/22 02:06:32;;;;;;;9.40;1.20;;;;;;;13.52;81.39;98830.13;5055844;27;20367;-51
2022/10/22 02:09:01;;;;;;;4.95;1.50;;;;;;;13.54;81.37;98838.72;5041445;28;20127;-51
2022/10/22 02:11:28;;;;;;;4.72;0.70;;;;;;;13.55;81.38;98834.38;5038136;28;20114;-51
2022/10/22 02:13:58;;;;;;;9.27;0.80;;;;;;;13.60;81.44;98840.25;5039492;28;20045;-53
2022/10/22 02:16:33;;;;;;;7.57;1.27;;;;;;;13.62;81.57;98839.28;5035813;28;20059;-52
2022/10/22 02:19:04;;;;;;;9.23;1.42;;;;;;;13.66;80.97;98839.19;5030986;28;20489;-48
2022/10/22 02:21:31;;;;;;;7.70;0.68;;;;;;;13.67;81.53;98835.69;5037522;28;20061;-46
2022/10/22 02:23:57;;;;;;;5.65;0.57;;;;;;;13.67;81.71;98838.28;5039296;28;20068;-48
2022/10/22 02:26:33;;;;;;;5.75;0.68;;;;;;;13.66;80.37;98849.59;5039446;28;20053;-46
2022/10/22 02:31:40;;;;;;;3.58;1.17;;;;;;;13.63;81.29;98853.16;5072159;27;20134;-48
2022/10/22 02:34:13;;;;;;;9.82;1.08;;;;;;;13.64;81.11;98856.63;5057954;28;20044;-50
2022/10/22 02:36:42;;;;;;;6.63;1.02;;;;;;;13.66;80.69;98860.00;5059690;28;20049;-48
2022/10/22 02:39:16;;;;;;;9.20;1.05;;;;;;;13.67;81.68;98864.28;5039836;28;20045;-48
2022/10/22 02:41:48;;;;;;;6.72;1.08;;;;;;;13.67;81.14;98867.75;5041298;28;20041;-49
2022/10/22 02:44:15;;;;;;;7.88;0.88;;;;;;;13.70;81.43;98877.22;5039451;28;20137;-47
2022/10/22 02:46:42;;;;;;;8.25;1.85;;;;;;;13.72;81.17;98876.25;5039106;28;20390;-48
2022/10/22 02:49:09;;;;;;;6.57;0.85;;;;;;;13.76;80.90;98882.22;5040120;28;20136;-51
2022/10/22 02:51:35;;;;;;;6.85;1.05;;;;;;;13.76;81.36;98879.59;5040924;28;20136;-48
2022/10/22 02:54:02;;;;;;;9.23;1.40;;;;;;;13.77;81.56;98889.09;5038271;28;20069;-46
2022/10/22 02:56:28;;;;;;;4.95;1.40;;;;;;;13.79;80.76;98887.31;5040238;28;20450;-48
2022/10/22 02:58:55;;;;;;;7.05;1.13;;;;;;;13.79;81.18;98897.72;5043532;28;20142;-52
2022/10/22 03:01:22;;;;;;;6.75;1.30;;;;;;;13.77;81.16;98904.72;5038230;28;20143;-45
2022/10/22 03:03:49;;;;;;;4.20;1.08;;;;;;;13.76;80.86;98895.22;5040301;28;20045;-50
2022/10/22 03:06:15;;;;;;;7.50;1.42;;;;;;;13.77;81.49;98907.31;5040279;28;20118;-48
2022/10/22 03:08:42;;;;;;;8.27;1.33;;;;;;;13.80;81.36;98908.97;5041377;28;20045;-50
2022/10/22 03:11:09;;;;;;;8.65;1.08;;;;;;;13.82;81.67;98913.22;5036840;28;20493;-47
2022/10/22 03:13:36;;;;;;;10.40;1.52;;;;;;;13.84;81.01;98911.41;5040614;28;20132;-49
2022/10/22 03:16:03;;;;;;;8.05;0.98;;;;;;;13.86;81.47;98925.25;5037118;28;20138;-52
2022/10/22 03:18:30;;;;;;;7.93;1.05;;;;;;;13.87;81.46;98926.94;5039777;28;20063;-48
2022/10/22 03:21:03;;;;;;;5.55;0.82;;;;;;;13.91;81.62;98929.44;5033972;28;20156;-50
2022/10/22 03:23:30;;;;;;;6.20;1.08;;;;;;;13.92;81.41;98928.53;5040405;28;20053;-48
2022/10/22 03:25:58;;;;;;;6.75;1.00;;;;;;;13.94;81.72;98934.50;5037492;28;20102;-49
2022/10/22 03:28:29;;;;;;;5.57;1.27;;;;;;;13.93;80.61;98945.84;5037879;28;20059;-47
2022/10/22 03:30:56;;;;;;;3.38;0.70;;;;;;;13.94;80.80;98937.13;5039462;28;20045;-49
2022/10/22 03:33:23;;;;;;;5.15;0.93;;;;;;;13.92;81.03;98945.00;5039212;28;20146;-49
2022/10/22 03:35:49;;;;;;;4.25;1.15;;;;;;;13.93;81.39;98951.03;5038207;28;20068;-48
2022/10/22 03:38:16;;;;;;;8.95;0.90;;;;;;;13.94;81.30;98950.13;5037086;28;20154;-48
2022/10/22 03:40:44;;;;;;;7.93;0.98;;;;;;;13.93;81.02;98953.66;5033986;28;20069;-47
2022/10/22 03:43:12;;;;;;;10.18;1.35;;;;;;;13.93;80.99;98962.31;5021333;28;20111;-48
2022/10/22 03:45:38;;;;;;;5.95;0.88;;;;;;;13.94;81.30;98981.38;5025287;28;20133;-48
2022/10/22 03:48:05;;;;;;;5.35;0.90;;;;;;;13.93;81.55;98982.28;5027011;28;20754;-48
2022/10/22 03:50:32;;;;;;;3.13;0.82;;;;;;;13.92;81.07;98977.97;5021426;28;20080;-49
2022/10/22 03:52:58;;;;;;;4.30;0.63;;;;;;;13.92;81.19;98976.25;5024367;28;20046;-48
2022/10/22 03:55:25;;;;;;;5.85;1.00;;;;;;;13.92;81.08;98993.59;5022821;28;20156;-47
2022/10/22 03:57:52;;;;;;;5.43;1.05;;;;;;;13.91;80.57;98995.34;5023528;28;20091;-47
2022/10/22 04:00:18;;;;;;;6.47;1.50;;;;;;;13.92;81.26;99006.63;5021031;28;20055;-48
2022/10/22 04:02:45;;;;;;;11.10;1.02;;;;;;;13.92;80.66;99012.69;5020957;28;20134;-47
2022/10/22 04:05:12;;;;;;;6.72;0.90;;;;;;;13.93;80.96;99008.31;5023387;28;20084;-47
2022/10/22 04:07:39;;;;;;;7.50;1.27;;;;;;;13.93;81.29;99021.31;5024037;28;20107;-50
2022/10/22 04:10:07;;;;;;;5.93;1.08;;;;;;;13.92;81.08;99022.22;5024521;28;20088;-47
2022/10/22 04:12:33;;;;;;;4.10;0.75;;;;;;;13.90;80.79;99021.41;5005662;28;20084;-47
2022/10/22 04:15:00;;;;;;;6.03;0.55;;;;;;;13.85;80.89;99021.59;5024062;28;20053;-49
2022/10/22 04:17:33;;;;;;;3.92;1.02;;;;;;;13.79;80.03;99026.97;5023090;28;20134;-51
2022/10/22 04:20:00;;;;;;;5.30;0.93;;;;;;;13.75;80.58;99031.44;5026879;28;20131;-48
2022/10/22 04:22:26;;;;;;;3.33;0.80;;;;;;;13.70;80.28;99033.34;5021788;28;20073;-49
2022/10/22 04:24:53;;;;;;;3.33;1.08;;;;;;;13.66;81.09;99036.94;5024342;28;20080;-46
2022/10/22 04:27:20;;;;;;;3.58;1.10;;;;;;;13.63;80.55;99043.09;5022890;28;20133;-50
2022/10/22 04:29:46;;;;;;;2.47;0.68;;;;;;;13.59;80.61;99036.28;5023900;28;20049;-48
2022/10/22 04:32:13;;;;;;;5.28;0.95;;;;;;;13.54;81.09;99041.63;5024032;28;20041;-48
2022/10/22 04:34:39;;;;;;;4.55;0.70;;;;;;;13.51;80.23;99041.72;5023560;28;20144;-48
2022/10/22 04:37:06;;;;;;;5.22;0.80;;;;;;;13.46;80.79;99036.63;5024317;28;20095;-46
2022/10/22 04:39:33;;;;;;;6.97;1.15;;;;;;;13.43;79.87;99041.06;5021145;28;20053;-49
2022/10/22 04:41:59;;;;;;;4.20;0.80;;;;;;;13.36;80.66;99038.69;5022995;28;20041;-49
2022/10/22 04:44:26;;;;;;;2.45;0.95;;;;;;;13.33;80.66;99046.56;5025682;28;20050;-48
2022/10/22 04:46:52;;;;;;;2.67;0.68;;;;;;;13.30;80.32;99056.19;5024543;28;20136;-46
2022/10/22 04:49:19;;;;;;;8.25;1.08;;;;;;;13.26;80.27;99058.03;5021539;28;20073;-48
2022/10/22 04:51:46;;;;;;;2.35;0.50;;;;;;;13.23;79.88;99060.72;5025713;28;20046;-49
2022/10/22 04:54:12;;;;;;;2.35;0.68;;;;;;;13.19;80.19;99064.31;5018895;28;22320;-50
2022/10/22 04:56:40;;;;;;;3.03;0.60;;;;;;;13.15;80.62;99070.50;5025212;28;20048;-48
2022/10/22 04:59:09;;;;;;;8.85;0.93;;;;;;;13.10;79.81;99076.69;5024480;28;20667;-48
2022/10/22 05:01:38;;;;;;;5.10;0.60;;;;;;;13.08;79.80;99083.66;5022920;28;20045;-48
2022/10/22 05:04:12;;;;;;;6.18;0.70;;;;;;;13.04;80.42;99081.22;5038120;28;20096;-47
2022/10/22 05:06:39;;;;;;;10.85;1.63;;;;;;;13.01;80.17;99081.31;5024145;28;20647;-49
2022/10/22 05:09:10;;;;;;;4.80;1.20;;;;;;;12.97;80.35;99083.97;5023748;28;20065;-49
2022/10/22 05:11:40;;;;;;;3.63;0.55;;;;;;;12.96;79.88;99089.22;5004481;28;20092;-50
2022/10/22 05:14:08;;;;;;;8.00;0.57;;;;;;;12.92;79.92;99085.00;5023774;28;20687;-49
2022/10/22 05:16:36;;;;;;;5.38;1.13;;;;;;;12.90;79.76;99094.59;5023378;28;20041;-50
2022/10/22 05:19:04;;;;;;;9.45;0.75;;;;;;;12.87;79.93;99092.09;5023764;28;20050;-50
2022/10/22 05:21:31;;;;;;;4.78;0.73;;;;;;;12.84;80.42;99096.47;5021356;28;20080;-48
2022/10/22 05:23:58;;;;;;;8.40;1.25;;;;;;;12.80;80.85;99088.81;5020606;28;20049;-48
2022/10/22 05:26:27;;;;;;;8.75;0.80;;;;;;;12.79;80.13;99098.34;5019159;28;20045;-48
2022/10/22 05:28:54;;;;;;;11.93;0.75;;;;;;;12.78;80.24;99104.44;5023676;28;20045;-49
2022/10/22 05:31:20;;;;;;;4.65;1.23;;;;;;;12.75;79.96;99114.91;5021329;28;20045;-49
2022/10/22 05:33:47;;;;;;;5.13;1.08;;;;;;;12.72;80.46;99107.19;5022140;28;20168;-51
2022/10/22 05:36:17;;;;;;;4.65;2.30;;;;;;;12.70;80.06;99111.59;5023678;28;20041;-46
2022/10/22 05:38:44;;;;;;;;;;;;;;;12.52;79.64;99110.31;5018795;28;20107;-50
2022/10/22 05:41:14;;;;;;;7.05;1.20;;;;;;;12.64;80.49;99119.53;5020279;28;20012;-49
2022/10/22 05:43:41;;;;;;;6.05;1.13;;;;;;;12.63;79.99;99123.88;5037773;28;20138;-47
2022/10/22 05:46:11;;;;;;;6.15;0.90;;;;;;;12.62;80.46;99121.31;5023474;28;20209;-47
2022/10/22 05:48:38;;;;;;;8.98;1.00;;;;;;;12.60;79.71;99124.81;4997228;28;20059;-49
2022/10/22 05:51:07;;;;;;;7.90;0.57;;;;;;;12.59;80.45;99122.25;5023297;28;20080;-50
2022/10/22 05:53:36;;;;;;;9.52;1.15;;;;;;;12.56;79.15;99133.56;5024128;28;20049;-49
2022/10/22 05:56:06;;;;;;;4.90;0.57;;;;;;;12.54;79.93;99137.97;5022587;28;20136;-47
2022/10/22 05:58:33;;;;;;;3.22;0.50;;;;;;;12.54;80.09;99147.50;5019932;28;20135;-49
2022/10/22 06:01:18;;;;;;;7.30;1.08;;;;;;;12.52;80.09;99152.72;5022715;28;20532;-47
2022/10/22 06:03:46;;;;;;;1.85;0.55;;;;;;;12.47;80.15;99157.19;5018639;28;20053;-49
2022/10/22 06:09:13;;;;;;;6.63;1.23;;;;;;;12.40;79.79;99169.47;5067775;27;20129;-49
2022/10/22 06:11:40;;;;;;;8.30;2.05;;;;;;;12.40;80.57;99173.81;4994545;28;20046;-51
2022/10/22 06:14:08;;;;;;;12.73;1.38;;;;;;;12.39;80.35;99166.94;5002101;28;20113;-48
2022/10/22 06:16:35;;;;;;;12.45;1.83;;;;;;;12.37;79.46;99173.88;4996405;28;20086;-49
2022/10/22 06:19:03;;;;;;;11.40;2.22;;;;;;;12.37;79.48;99184.28;4993194;28;20054;-46
2022/10/22 06:21:31;;;;;;;8.73;1.65;;;;;;;12.34;79.51;99186.03;4998261;28;20104;-47
2022/10/22 06:23:59;;;;;;;5.03;1.25;;;;;;;12.34;79.29;99190.41;4996816;28;20078;-47
2022/10/22 06:26:26;;;;;;;8.43;1.73;;;;;;;12.31;79.41;99190.47;4992448;28;20042;-48
2022/10/22 06:28:54;;;;;;;5.85;1.30;;;;;;;12.30;79.44;99194.78;4995202;28;20038;-47
2022/10/22 06:31:22;;;;;;;11.25;1.67;;;;;;;12.29;79.59;99203.47;4995080;28;20079;-50
2022/10/22 06:33:48;;;;;;;8.32;1.35;;;;;;;12.28;79.08;99212.16;5007567;28;20060;-47
2022/10/22 06:36:18;;;;;;;13.80;1.67;;;;;;;12.26;78.79;99208.72;5020126;28;20049;-50
2022/10/22 06:38:44;;;;;;;8.05;2.03;;;;;;;12.24;78.81;99220.91;5012149;28;20125;-49
2022/10/22 06:41:14;;;;;;;9.85;1.55;;;;;;;12.24;80.13;99215.72;4995413;28;20101;-48
2022/10/22 06:43:44;;;;;;;7.40;1.65;;;;;;;12.23;79.98;99218.34;4997034;28;20052;-48
2022/10/22 06:46:11;;;;;;;8.32;1.75;;;;;;;12.21;78.65;99220.97;4978764;28;20054;-49
2022/10/22 06:48:47;;;;;;;10.00;1.08;;;;;;;12.19;79.40;99226.19;4990493;28;20417;-48
2022/10/22 06:51:14;;;;;;;4.07;1.52;;;;;;;12.18;80.13;99237.47;4994583;28;20054;-48
2022/10/22 06:53:40;;;;;;;9.98;2.22;;;;;;;12.19;79.60;99233.13;4997120;28;20050;-48
2022/10/22 06:56:09;;;;;;;10.73;1.92;;;;;;;12.19;79.39;99238.31;4995379;28;20545;-48
2022/10/22 06:58:36;;;;;;;7.10;1.63;;;;;;;12.19;79.40;99249.56;4997969;28;20129;-48
2022/10/22 07:01:05;;;;;;;8.77;1.83;;;;;;;12.18;79.47;99244.41;4995510;28;20069;-47
2022/10/22 07:03:32;;;;;;;9.68;1.70;;;;;;;12.17;78.49;99256.56;4993905;28;20046;-48
2022/10/22 07:06:01;;;;;;;11.60;0.90;;;;;;;12.20;79.16;99260.81;4997877;28;20419;-47
2022/10/22 07:08:28;;;;;;;16.10;2.63;;;;;;;12.21;79.07;99272.91;4998270;28;20125;-48
2022/10/22 07:10:55;;;;;;;5.25;1.35;;;;;;;12.20;78.98;99263.41;5000188;28;20104;-47
2022/10/22 07:13:22;;;;;;;7.50;2.00;;;;;;;12.20;78.78;99266.00;4997150;28;20540;-48
2022/10/22 07:15:54;;;;;;;7.25;2.20;;;;;;;12.19;79.46;99280.72;4994855;28;20073;-49
2022/10/22 07:18:21;;;;;;;7.15;1.60;;;;;;;12.18;79.61;99281.63;5008004;28;20042;-48
2022/10/22 07:20:48;;;;;;;4.72;1.38;;;;;;;12.20;79.87;99290.22;4982190;28;20049;-48
2022/10/22 07:23:15;;;;;;;7.82;1.63;;;;;;;12.18;79.59;99288.53;4983715;28;20141;-49
2022/10/22 07:25:42;;;;;;;5.13;1.98;;;;;;;12.18;79.87;99288.53;4980189;28;20120;-48
2022/10/22 07:28:10;;;;;;;9.75;1.77;;;;;;;12.18;78.81;99297.19;4978189;28;20073;-48
2022/10/22 07:30:38;;;;;;;15.63;2.17;;;;;;;12.16;79.42;99306.75;4978421;28;20159;-47
2022/10/22 07:33:05;;;;;;;4.90;1.48;;;;;;;12.18;80.13;99315.38;4979440;28;20569;-47
2022/10/22 07:35:33;;;;;;;8.15;1.83;;;;;;;12.19;79.96;99311.00;4975499;28;20132;-47
2022/10/22 07:38:00;;;;;;;6.80;1.75;;;;;;;12.18;78.81;99309.31;4977932;28;20109;-47
2022/10/22 07:40:27;;;;;;;7.35;2.20;;;;;;;12.18;79.06;99315.38;4979361;28;20577;-48
2022/10/22 07:42:53;;;;;;;6.15;2.00;;;;;;;12.18;79.32;99324.88;4979714;28;20141;-49
2022/10/22 07:45:20;;;;;;;12.52;1.23;;;;;;;12.22;80.05;99321.34;4981938;28;20467;-46
2022/10/22 07:47:47;;;;;;;5.78;1.33;;;;;;;12.25;80.12;99326.47;4979526;28;20141;-48
2022/10/22 07:50:15;;;;;;;6.07;0.80;;;;;;;12.33;79.68;99334.09;4976985;28;20621;-50
2022/10/22 07:52:42;;;;;;;4.05;1.98;;;;;;;12.38;79.94;99337.44;4979370;28;20050;-48
2022/10/22 07:55:09;;;;;;;9.80;1.90;;;;;;;12.46;79.93;99342.47;4973707;28;20055;-49
2022/10/22 07:57:36;;;;;;;5.97;0.82;;;;;;;12.55;79.58;99347.47;4981240;28;20589;-47
2022/10/22 08:00:05;;;;;;;8.98;1.75;;;;;;;12.68;79.68;99344.59;4979823;28;20049;-47
2022/10/22 08:02:32;;;;;;;6.13;2.53;;;;;;;12.73;79.81;99358.31;4974826;28;20142;-47
2022/10/22 08:04:59;;;;;;;7.53;1.77;;;;;;;12.77;78.77;99354.75;4977581;28;20528;-46
2022/10/22 08:07:26;;;;;;;6.20;1.80;;;;;;;12.79;79.02;99362.53;4978598;28;20098;-46
2022/10/22 08:09:57;;;;;;;8.40;0.75;;;;;;;12.93;78.90;99364.78;4978864;28;20467;-46
2022/10/22 08:12:24;;;;;;;12.10;1.95;;;;;;;13.22;79.41;99368.47;4979744;28;20046;-47
2022/10/22 08:14:51;;;;;;;7.68;2.10;;;;;;;13.65;79.19;99378.69;4975898;28;20074;-48
2022/10/22 08:17:17;;;;;;;16.20;2.88;;;;;;;14.01;79.57;99376.84;4980786;28;20059;-51
2022/10/22 08:19:44;;;;;;;9.77;2.67;;;;;;;14.36;79.80;99387.16;4981944;28;20478;-50
2022/10/22 08:22:10;;;;;;;10.68;2.05;;;;;;;14.83;79.46;99393.63;4977936;28;20137;-47
2022/10/22 08:24:37;;;;;;;12.07;2.47;;;;;;;15.49;78.98;99391.53;4973643;28;20867;-47
2022/10/22 08:27:04;;;;;;;6.32;2.30;;;;;;;16.11;77.43;99399.03;4984151;28;20085;-48
2022/10/22 08:29:30;;;;;;;5.70;1.10;;;;;;;16.58;77.53;99398.16;4992789;28;20419;-51
2022/10/22 08:31:57;;;;;;;10.80;1.70;;;;;;;16.98;76.64;99397.53;4974366;28;20532;-48
2022/10/22 08:34:23;;;;;;;9.60;2.08;;;;;;;17.33;75.50;99398.72;4971542;28;20525;-50
2022/10/22 08:36:50;;;;;;;24.13;2.97;;;;;;;17.47;75.09;99406.00;4977045;28;20050;-50
2022/10/22 08:39:17;;;;;;;14.20;2.13;;;;;;;17.59;75.84;99406.41;4980419;28;20134;-47
2022/10/22 08:42:02;;;;;;;7.72;1.73;;;;;;;17.78;75.88;99405.63;4975220;28;20047;-50
2022/10/22 08:49:49;;;;;;;6.60;0.68;;;;;;;19.48;74.41;99414.47;5066361;28;20796;-50
2022/10/22 08:52:18;;;;;;;8.30;1.58;;;;;;;20.34;73.22;99417.16;5040108;28;20061;-51
2022/10/22 09:08:44;;;;;;;4.15;1.02;;;;;;;24.63;63.14;99425.97;5117042;27;20119;-54
2022/10/22 09:13:47;;;;;;;7.13;2.15;;;;;;;25.54;60.67;99435.34;5120227;27;20128;-59
2022/10/22 09:24:12;;;;;;;5.13;2.60;;;;;;;27.02;55.75;99439.03;5089573;27;20450;-56
2022/10/22 09:26:40;;;;;;;10.52;2.42;;;;;;;27.26;54.87;99444.16;5061370;28;20056;-58
2022/10/22 09:29:15;;;;;;;4.63;2.03;;;;;;;27.31;52.58;99441.09;5062453;28;20060;-63
2022/10/22 09:31:42;;;;;;;9.18;2.60;;;;;;;27.46;53.36;99450.44;5057289;28;20139;-55
2022/10/22 09:34:13;;;;;;;9.27;2.55;;;;;;;27.69;52.75;99455.66;5065383;28;20155;-52
2022/10/22 09:36:40;;;;;;;10.35;2.28;;;;;;;28.08;53.70;99448.88;5065127;28;20044;-50
2022/10/22 09:39:24;;;;;;;7.82;2.10;;;;;;;28.55;51.83;99455.53;5062792;28;20073;-54
2022/10/22 09:41:51;;;;;;;5.43;2.40;;;;;;;28.68;50.15;99461.47;5069088;28;20123;-53
2022/10/22 09:44:19;;;;;;;7.25;2.88;;;;;;;28.72;49.85;99460.22;5072620;28;20763;-58
2022/10/22 09:46:45;;;;;;;6.78;2.67;;;;;;;28.73;48.15;99469.91;5062128;28;20052;-53
2022/10/22 09:49:16;;;;;;;5.43;1.85;;;;;;;28.72;48.36;99467.38;5064067;28;20136;-56
2022/10/22 09:51:50;;;;;;;7.15;2.95;;;;;;;28.53;45.99;99466.31;5064405;28;20059;-57
2022/10/22 09:57:01;;;;;;;7.65;0.93;;;;;;;28.58;46.66;99471.25;5041489;28;20393;-54
2022/10/22 09:59:31;;;;;;;7.40;1.17;;;;;;;28.63;46.42;99469.03;5000486;28;20081;-51
2022/10/22 10:02:10;;;;;;;4.97;0.80;;;;;;;28.77;45.44;99472.28;4993672;28;20060;-52
2022/10/22 10:05:01;;;;;;;10.02;2.20;;;;;;;28.68;46.02;99477.47;5000528;28;20062;-57
2022/10/22 10:07:31;;;;;;;7.32;1.20;;;;;;;28.58;45.48;99487.25;4979012;28;20089;-57
2022/10/22 10:09:58;;;;;;;10.38;1.15;;;;;;;28.43;46.68;99484.94;4972124;28;20050;-56
2022/10/22 10:12:51;;;;;;;8.82;0.93;;;;;;;28.57;45.74;99490.88;4974793;28;20129;-55
2022/10/22 10:15:41;;;;;;;8.43;1.00;;;;;;;28.86;46.12;99500.78;5004713;28;20392;-53
2022/10/22 10:31:32;;;;;;;6.72;1.50;;;;;;;28.60;40.08;99487.94;5040292;27;21627;-55
2022/10/22 10:37:11;;;;;;;7.03;1.40;;;;;;;28.00;42.45;99493.94;5094749;27;20133;-52
2022/10/22 10:42:35;;;;;;;5.05;1.88;;;;;;;26.63;43.06;99512.00;5083223;27;20132;-54
2022/10/22 10:53:37;;;;;;;5.70;0.52;;;;;;;24.60;46.70;99521.50;5056239;27;20136;-53
2022/10/22 10:56:29;;;;;;;4.80;1.08;;;;;;;24.03;46.67;99523.59;4994568;28;20058;-56
2022/10/22 11:01:52;;;;;;;7.47;1.90;;;;;;;23.33;48.47;99521.06;5044861;27;20126;-54
2022/10/22 11:04:44;;;;;;;5.75;0.68;;;;;;;22.84;48.49;99525.88;5049992;28;20102;-56
2022/10/22 11:07:16;;;;;;;4.47;1.27;;;;;;;22.56;49.82;99522.31;5058394;28;20051;-50
2022/10/22 11:10:08;;;;;;;7.85;1.10;;;;;;;22.22;50.15;99524.31;5042783;28;20036;-50
2022/10/22 11:12:40;;;;;;;6.38;1.38;;;;;;;21.92;51.03;99518.16;5030785;28;20059;-53
2022/10/22 11:17:54;;;;;;;3.42;0.50;;;;;;;21.43;51.92;99527.09;5076800;27;20138;-52
2022/10/22 11:20:45;;;;;;;3.90;0.50;;;;;;;21.23;51.51;99536.94;5039909;28;20041;-53
2022/10/22 11:23:20;;;;;;;6.75;1.35;;;;;;;21.10;52.19;99533.31;5025200;28;20572;-51
2022/10/22 11:25:49;;;;;;;6.35;0.90;;;;;;;21.01;53.17;99532.84;5038491;28;20144;-56
2022/10/22 11:28:36;;;;;;;4.25;1.13;;;;;;;20.84;53.16;99535.53;5039146;28;20460;-57
2022/10/22 11:31:09;;;;;;;5.32;0.82;;;;;;;20.74;53.32;99536.03;5036676;28;20106;-52
2022/10/22 11:33:44;;;;;;;5.25;0.60;;;;;;;20.50;53.06;99544.28;5041678;28;20140;-54
2022/10/22 11:36:12;;;;;;;5.95;1.55;;;;;;;20.32;53.68;99545.25;5036922;28;20757;-50
2022/10/22 11:38:39;;;;;;;3.20;1.15;;;;;;;20.20;54.11;99530.97;5039285;28;20048;-51
2022/10/22 11:41:11;;;;;;;5.32;0.82;;;;;;;20.03;54.31;99528.25;5053543;28;20048;-56
2022/10/22 11:44:04;;;;;;;6.05;0.60;;;;;;;19.87;54.27;99535.19;5051378;28;20177;-50
2022/10/22 11:46:42;;;;;;;4.57;0.70;;;;;;;19.83;54.75;99534.50;5039473;28;20120;-50
2022/10/22 11:51:46;;;;;;;3.80;1.65;;;;;;;19.73;54.87;99534.06;5034016;27;20134;-56
2022/10/22 11:57:24;;;;;;;1.48;0.60;;;;;;;19.44;55.37;99528.47;5064652;27;20127;-54
2022/10/22 11:59:56;;;;;;;5.30;0.40;;;;;;;19.42;55.49;99527.69;5042268;28;20052;-53
2022/10/22 12:02:40;;;;;;;4.88;0.70;;;;;;;19.35;55.62;99531.56;5034600;28;20053;-55
2022/10/22 12:08:24;;;;;;;5.10;0.40;;;;;;;19.37;56.22;99527.06;5051867;27;20372;-56
2022/10/22 12:13:52;;;;;;;4.60;2.17;;;;;;;19.33;56.80;99530.78;5074102;27;20119;-52
2022/10/22 12:16:22;;;;;;;5.53;1.25;;;;;;;19.29;56.56;99529.22;5037404;28;20130;-50
2022/10/22 12:22:14;;;;;;;4.65;1.10;;;;;;;19.06;56.35;99528.50;5068179;27;20135;-46
2022/10/22 12:24:45;;;;;;;2.88;1.00;;;;;;;19.07;56.78;99528.44;5035772;28;20065;-48
2022/10/22 12:27:18;;;;;;;7.20;0.90;;;;;;;19.07;56.63;99530.22;5018866;28;20050;-50
2022/10/22 12:29:53;;;;;;;5.57;0.82;;;;;;;19.04;56.05;99519.84;5022345;28;20053;-52
2022/10/22 12:32:20;;;;;;;6.95;1.23;;;;;;;19.00;56.45;99530.50;5018733;28;20082;-47
2022/10/22 12:34:48;;;;;;;4.97;0.60;;;;;;;19.01;56.66;99526.94;5027153;28;20041;-52
2022/10/22 12:37:20;;;;;;;5.78;0.90;;;;;;;19.00;56.40;99520.00;5053186;28;20050;-53
2022/10/22 12:39:46;;;;;;;6.40;0.77;;;;;;;18.99;56.59;99528.75;5019718;28;20075;-48
2022/10/22 12:42:15;;;;;;;3.88;0.57;;;;;;;18.97;56.57;99514.00;5017053;28;20077;-54
2022/10/22 12:44:43;;;;;;;6.93;0.70;;;;;;;18.91;56.52;99514.31;5026168;28;20050;-49
2022/10/22 12:47:17;;;;;;;7.40;1.30;;;;;;;18.86;56.70;99511.91;5023407;28;20053;-53
2022/10/22 12:49:47;;;;;;;6.53;1.10;;;;;;;18.78;56.94;99511.41;4998924;28;20054;-49
2022/10/22 12:52:21;;;;;;;6.28;0.55;;;;;;;18.72;57.25;99516.03;5011616;28;20049;-52
2022/10/22 12:54:51;;;;;;;4.22;1.02;;;;;;;18.72;57.53;99521.25;5011189;28;20609;-54
2022/10/22 12:57:20;;;;;;;5.78;0.50;;;;;;;18.73;57.27;99522.09;5004233;28;20137;-50
2022/10/22 12:59:49;;;;;;;9.05;1.33;;;;;;;18.75;57.82;99518.47;5012160;28;20129;-55
2022/10/22 13:07:50;;;;;;;7.95;1.02;;;;;;;18.94;57.36;99525.50;5062160;27;20494;-55
2022/10/22 13:10:30;;;;;;;6.13;0.70;;;;;;;18.74;56.18;99514.16;5035388;28;20080;-55
2022/10/22 13:12:57;;;;;;;7.97;1.52;;;;;;;18.66;57.17;99524.16;5053113;28;20075;-52
2022/10/22 13:15:36;;;;;;;5.38;0.45;;;;;;;18.44;57.19;99522.47;5034670;28;20080;-53
2022/10/22 13:18:05;;;;;;;5.40;1.15;;;;;;;18.34;57.41;99523.81;5034007;28;20176;-56
2022/10/22 13:20:36;;;;;;;6.53;1.38;;;;;;;18.27;57.77;99525.00;5066053;28;20172;-50
2022/10/22 13:23:05;;;;;;;4.10;0.45;;;;;;;18.18;58.28;99521.84;5034179;28;20501;-53
2022/10/22 13:25:33;;;;;;;5.57;0.63;;;;;;;18.11;58.72;99521.25;5034199;28;20068;-50
2022/10/22 13:28:17;;;;;;;8.27;1.05;;;;;;;18.07;58.79;99522.25;5032646;28;20045;-52
2022/10/22 13:30:54;;;;;;;4.28;0.77;;;;;;;17.99;59.26;99517.34;5030819;28;20056;-55
2022/10/22 13:33:32;;;;;;;6.05;0.85;;;;;;;18.01;59.46;99524.31;5033773;28;20056;-52
2022/10/22 13:35:59;;;;;;;7.68;1.70;;;;;;;17.99;59.27;99527.84;5061266;28;20038;-52
2022/10/22 13:38:27;;;;;;;3.80;1.10;;;;;;;17.97;59.21;99521.81;5031361;28;20132;-54